Time;durP1;ratioP1;P1;durP2;ratioP2;P2;SDS_P1;SDS_P2;PMS_P1;PMS_P2;Temp;Humidity;BMP_temperature;BMP_pressure;BME280_temperature;BME280_humidity;BME280_pressure;Samples;Min_cycle;Max_cycle;Signal;HPM_P1;HPM_P2
2022/06/15 00:02:13;;;;;;;8.98;3.10;;;;;;;11.62;100.00;98637.69;5102223;28;20028;-94
2022/06/15 00:04:40;;;;;;;10.15;3.05;;;;;;;11.59;100.00;98642.97;5096722;28;20023;-95
2022/06/15 00:07:06;;;;;;;9.30;2.97;;;;;;;11.57;100.00;98636.91;5081708;28;20050;-95
2022/06/15 00:09:32;;;;;;;8.13;2.97;;;;;;;11.60;100.00;98637.72;5076424;28;20033;-96
2022/06/15 00:11:57;;;;;;;7.75;2.38;;;;;;;11.53;100.00;98635.22;5080941;28;20026;-95
2022/06/15 00:14:28;;;;;;;8.70;3.13;;;;;;;11.48;100.00;98630.06;5083224;28;20114;-95
2022/06/15 00:17:19;;;;;;;10.27;3.20;;;;;;;11.47;100.00;98630.97;5074624;28;20036;-95
2022/06/15 00:19:44;;;;;;;11.52;3.30;;;;;;;11.49;100.00;98620.50;5063867;28;20082;-95
2022/06/15 00:22:15;;;;;;;11.40;2.95;;;;;;;11.55;100.00;98631.72;5088022;28;20483;-95
2022/06/15 00:24:41;;;;;;;10.75;3.38;;;;;;;11.46;100.00;98631.84;5073796;28;20492;-95
2022/06/15 00:27:06;;;;;;;8.80;2.85;;;;;;;11.29;100.00;98626.88;5073901;28;20040;-95
2022/06/15 00:29:33;;;;;;;9.05;3.25;;;;;;;11.26;100.00;98619.94;5074520;28;20034;-94
2022/06/15 00:31:59;;;;;;;8.02;3.10;;;;;;;11.28;100.00;98627.75;5070195;28;20043;-94
2022/06/15 00:34:25;;;;;;;11.68;3.60;;;;;;;11.21;100.00;98618.28;5069915;28;20686;-94
2022/06/15 00:36:54;;;;;;;9.05;3.20;;;;;;;11.20;100.00;98630.47;5074974;28;20047;-94
2022/06/15 00:39:19;;;;;;;10.70;3.50;;;;;;;11.20;100.00;98632.22;5075235;28;20118;-95
2022/06/15 00:41:45;;;;;;;8.57;3.20;;;;;;;11.24;100.00;98626.91;5074123;28;20118;-95
2022/06/15 00:44:17;;;;;;;9.52;3.35;;;;;;;11.23;100.00;98626.94;5072013;28;20027;-94
2022/06/15 00:46:45;;;;;;;12.45;4.15;;;;;;;11.20;100.00;98635.69;5072811;28;20123;-95
2022/06/15 00:49:20;;;;;;;8.35;3.70;;;;;;;11.22;100.00;98633.06;5070721;28;20028;-94
2022/06/15 00:51:48;;;;;;;10.52;3.58;;;;;;;11.24;100.00;98637.34;5074757;28;20901;-95
2022/06/15 00:54:14;;;;;;;9.63;3.38;;;;;;;11.16;100.00;98618.34;5066878;28;20109;-94
2022/06/15 00:56:51;;;;;;;11.40;3.70;;;;;;;11.21;100.00;98626.13;5065295;28;20055;-94
2022/06/15 00:59:22;;;;;;;10.38;3.78;;;;;;;11.14;100.00;98617.50;5071713;28;20134;-94
2022/06/15 01:01:48;;;;;;;10.27;3.78;;;;;;;11.14;100.00;98625.31;5072883;28;20040;-94
2022/06/15 01:04:15;;;;;;;12.45;4.18;;;;;;;11.06;100.00;98621.94;5070289;28;20021;-95
2022/06/15 01:06:50;;;;;;;11.93;3.65;;;;;;;11.03;100.00;98615.03;5069881;28;20017;-96
2022/06/15 01:09:32;;;;;;;8.77;3.85;;;;;;;11.14;100.00;98629.69;5071700;28;20020;-95
2022/06/15 01:12:13;;;;;;;10.40;4.00;;;;;;;11.02;100.00;98631.59;5065164;28;20031;-95
2022/06/15 01:14:50;;;;;;;11.63;3.75;;;;;;;10.95;100.00;98624.69;5070707;28;20091;-95
2022/06/15 01:17:52;;;;;;;11.02;3.70;;;;;;;10.95;100.00;98622.09;5072814;28;20036;-96
2022/06/15 01:20:48;;;;;;;11.85;4.32;;;;;;;10.94;100.00;98620.38;5023105;28;20036;-95
2022/06/15 01:23:32;;;;;;;11.07;4.45;;;;;;;10.85;100.00;98623.94;5053155;28;20040;-95
2022/06/15 01:26:17;;;;;;;9.75;3.70;;;;;;;10.78;100.00;98619.69;5068247;28;20028;-95
2022/06/15 01:28:52;;;;;;;10.30;4.47;;;;;;;10.72;100.00;98618.03;5069978;28;20549;-96
2022/06/15 01:31:53;;;;;;;11.13;4.10;;;;;;;10.67;100.00;98614.59;5070164;28;20035;-95
2022/06/15 01:34:27;;;;;;;10.35;3.92;;;;;;;10.57;100.00;98620.81;4990470;28;20046;-95
2022/06/15 01:37:21;;;;;;;10.55;4.35;;;;;;;10.52;100.00;98622.59;5009142;28;20042;-95
2022/06/15 01:39:58;;;;;;;11.25;4.55;;;;;;;10.53;100.00;98627.78;5005826;28;20133;-95
2022/06/15 01:42:27;;;;;;;11.02;3.95;;;;;;;10.48;100.00;98624.41;4993638;28;20021;-96
2022/06/15 01:45:07;;;;;;;11.63;4.30;;;;;;;10.44;100.00;98629.63;4993344;28;20154;-94
2022/06/15 01:47:35;;;;;;;10.48;3.97;;;;;;;10.23;100.00;98623.75;4990832;28;20084;-95
2022/06/15 01:50:10;;;;;;;10.00;3.90;;;;;;;10.17;100.00;98636.81;4991918;28;20036;-95
2022/06/15 01:53:24;;;;;;;11.18;3.85;;;;;;;10.11;100.00;98635.16;4989483;28;20037;-95
2022/06/15 01:55:58;;;;;;;9.75;4.10;;;;;;;10.16;100.00;98627.28;4982517;28;20124;-96
2022/06/15 01:58:27;;;;;;;11.80;4.10;;;;;;;10.13;100.00;98637.72;4989071;28;20165;-95
2022/06/15 02:01:16;;;;;;;10.07;4.07;;;;;;;10.07;100.00;98625.63;4991463;28;20033;-96
2022/06/15 02:03:58;;;;;;;10.23;4.13;;;;;;;10.04;100.00;98633.47;4987681;28;20044;-96
2022/06/15 02:06:42;;;;;;;11.95;4.20;;;;;;;10.05;100.00;98636.06;4981919;28;20050;-96
2022/06/15 02:09:25;;;;;;;12.32;4.47;;;;;;;10.10;100.00;98633.41;5018657;28;20071;-95
2022/06/15 02:11:56;;;;;;;15.25;4.70;;;;;;;10.11;100.00;98634.28;5068531;28;20031;-96
2022/06/15 02:14:27;;;;;;;10.35;4.40;;;;;;;10.08;100.00;98632.56;5070111;28;20036;-95
2022/06/15 02:17:35;;;;;;;13.05;4.70;;;;;;;10.05;100.00;98635.22;5065919;28;20025;-95
2022/06/15 02:20:08;;;;;;;13.98;5.43;;;;;;;9.98;100.00;98636.13;4992687;28;20074;-94
2022/06/15 02:22:39;;;;;;;13.87;4.60;;;;;;;9.85;100.00;98630.16;4984946;28;20132;-94
2022/06/15 02:25:08;;;;;;;13.00;5.00;;;;;;;9.96;100.00;98636.13;4979539;28;20041;-94
2022/06/15 02:27:39;;;;;;;11.35;4.80;;;;;;;10.02;100.00;98630.00;4973768;28;20057;-96
2022/06/15 02:30:12;;;;;;;12.98;4.80;;;;;;;10.03;100.00;98626.53;4991215;28;20029;-94
2022/06/15 02:32:38;;;;;;;12.18;4.60;;;;;;;10.01;100.00;98623.94;4991201;28;20049;-94
2022/06/15 02:35:04;;;;;;;11.88;4.55;;;;;;;10.00;100.00;98623.97;4993542;28;20073;-95
2022/06/15 02:37:30;;;;;;;11.48;4.53;;;;;;;9.93;100.00;98630.09;4978722;28;20033;-94
2022/06/15 02:40:29;;;;;;;12.95;4.93;;;;;;;9.81;100.00;98626.72;4990214;28;20022;-95
2022/06/15 02:42:55;;;;;;;12.70;4.60;;;;;;;9.84;100.00;98624.09;4976955;28;20026;-94
2022/06/15 02:45:28;;;;;;;11.85;4.70;;;;;;;10.05;100.00;98632.59;4985213;28;20034;-94
2022/06/15 02:47:55;;;;;;;11.77;4.47;;;;;;;10.16;100.00;98622.94;5000956;28;20033;-93
2022/06/15 02:50:23;;;;;;;15.95;5.40;;;;;;;10.29;100.00;98625.44;4984769;28;20611;-93
2022/06/15 02:53:11;;;;;;;10.27;4.45;;;;;;;10.13;100.00;98625.59;4980616;28;20073;-95
2022/06/15 02:55:37;;;;;;;12.23;5.10;;;;;;;10.13;100.00;98622.97;5070045;28;20080;-94
2022/06/15 02:58:29;;;;;;;11.07;4.85;;;;;;;10.05;100.00;98620.44;5069188;28;20020;-94
2022/06/15 03:00:56;;;;;;;13.57;5.15;;;;;;;10.01;100.00;98626.53;5069017;28;20032;-94
2022/06/15 03:03:23;;;;;;;13.10;5.32;;;;;;;10.17;100.00;98623.78;5070230;28;20032;-95
2022/06/15 03:05:50;;;;;;;13.15;4.53;;;;;;;10.10;100.00;98603.91;5068385;28;20039;-92
2022/06/15 03:08:17;;;;;;;11.85;4.63;;;;;;;10.05;100.00;98622.19;5069115;28;20115;-94
2022/06/15 03:10:53;;;;;;;10.82;4.90;;;;;;;9.92;100.00;98613.59;5071680;28;20036;-95
2022/06/15 03:13:19;;;;;;;12.95;5.00;;;;;;;9.94;100.00;98621.38;5070817;28;20043;-94
2022/06/15 03:15:45;;;;;;;11.98;5.00;;;;;;;10.06;100.00;98608.25;5068337;28;20017;-94
2022/06/15 03:18:11;;;;;;;11.35;4.72;;;;;;;10.13;100.00;98607.34;5069815;28;20365;-95
2022/06/15 03:20:36;;;;;;;11.45;4.70;;;;;;;10.11;100.00;98605.63;5078670;28;20104;-96
2022/06/15 03:23:02;;;;;;;13.02;5.72;;;;;;;10.12;100.00;98603.00;5087688;28;20051;-96
2022/06/15 03:25:28;;;;;;;11.20;5.05;;;;;;;10.18;100.00;98605.53;5088291;28;20044;-95
2022/06/15 03:27:53;;;;;;;14.05;5.13;;;;;;;9.94;100.00;98600.56;5077374;28;20033;-96
2022/06/15 03:33:42;;;;;;;12.15;5.32;;;;;;;10.12;100.00;98591.69;5071382;28;20082;-95
2022/06/15 03:36:08;;;;;;;13.85;5.53;;;;;;;10.16;100.00;98599.50;5069786;28;20107;-95
2022/06/15 03:38:33;;;;;;;13.60;5.57;;;;;;;10.01;100.00;98599.66;5074719;28;20036;-96
2022/06/15 03:40:59;;;;;;;13.23;5.32;;;;;;;9.86;100.00;98609.31;5089477;28;20031;-94
2022/06/15 03:43:25;;;;;;;11.65;5.38;;;;;;;9.82;100.00;98605.00;5105721;28;20020;-96
2022/06/15 03:45:50;;;;;;;15.23;5.28;;;;;;;9.79;100.00;98609.38;5082284;28;20119;-95
2022/06/15 03:48:16;;;;;;;12.23;4.97;;;;;;;9.61;100.00;98613.84;5072004;28;20030;-96
2022/06/15 03:50:42;;;;;;;12.45;5.60;;;;;;;9.65;100.00;98614.69;5073624;28;20024;-95
2022/06/15 03:53:09;;;;;;;13.73;5.55;;;;;;;9.55;100.00;98616.50;5071152;28;20040;-94
2022/06/15 03:55:35;;;;;;;11.80;5.20;;;;;;;9.44;100.00;98605.31;5074110;28;20044;-93
2022/06/15 03:58:01;;;;;;;12.32;5.07;;;;;;;9.44;100.00;98611.38;5069157;28;20044;-94
2022/06/15 04:00:29;;;;;;;13.43;5.40;;;;;;;9.55;100.00;98614.75;5071842;28;20021;-94
2022/06/15 04:03:02;;;;;;;12.43;5.45;;;;;;;9.66;100.00;98619.00;5069081;28;20037;-94
2022/06/15 04:05:52;;;;;;;11.82;5.45;;;;;;;9.48;100.00;98617.44;5073406;28;20119;-95
2022/06/15 04:08:39;;;;;;;12.38;5.80;;;;;;;9.43;100.00;98609.63;5072155;28;20052;-93
2022/06/15 04:13:59;;;;;;;;;;;;;;;9.43;100.00;98611.38;5070785;28;20069;-95
2022/06/15 04:16:24;;;;;;;11.48;4.88;;;;;;;9.42;100.00;98601.84;5072290;28;19912;-95
2022/06/15 04:18:50;;;;;;;13.32;5.65;;;;;;;9.47;100.00;98603.53;5073097;28;20040;-95
2022/06/15 04:21:25;;;;;;;13.05;5.47;;;;;;;9.44;100.00;98600.97;5071285;28;20035;-93
2022/06/15 04:23:51;;;;;;;13.77;5.57;;;;;;;9.41;100.00;98608.81;5071893;28;20017;-96
2022/06/15 04:26:16;;;;;;;12.93;5.20;;;;;;;9.46;100.00;98613.97;5073949;28;20025;-94
2022/06/15 04:32:04;;;;;;;13.13;5.22;;;;;;;9.37;100.00;98601.88;5092844;22;20069;-92
2022/06/15 04:34:32;;;;;;;15.85;5.13;;;;;;;9.44;100.00;98606.16;5063261;28;20096;-92
2022/06/15 04:37:04;;;;;;;12.98;5.07;;;;;;;9.43;100.00;98609.63;5054637;28;20060;-92
2022/06/15 04:39:43;;;;;;;12.25;5.03;;;;;;;9.49;100.00;98617.41;5051666;28;21117;-92
2022/06/15 04:42:15;;;;;;;11.93;5.55;;;;;;;9.50;100.00;98608.72;5058691;28;20040;-92
2022/06/15 04:44:52;;;;;;;;;;;;;;;;;;;;;
2022/06/15 04:47:22;;;;;;;14.82;5.97;;;;;;;9.67;100.00;98619.03;5042616;28;20092;-93
2022/06/15 04:50:00;;;;;;;12.50;5.50;;;;;;;9.60;100.00;98611.25;5053552;28;20192;-92
2022/06/15 04:52:33;;;;;;;15.25;6.00;;;;;;;9.67;100.00;98623.34;5051766;28;20033;-94
2022/06/15 04:54:59;;;;;;;12.25;5.90;;;;;;;9.75;100.00;98629.38;5049252;28;20082;-94
2022/06/15 04:57:33;;;;;;;14.07;6.22;;;;;;;9.84;100.00;98621.50;5054297;28;20037;-93
2022/06/15 05:00:07;;;;;;;13.02;5.38;;;;;;;9.95;100.00;98625.72;5051083;28;20045;-93
2022/06/15 05:02:35;;;;;;;11.90;5.57;;;;;;;10.06;100.00;98629.97;5053572;28;20029;-92
2022/06/15 05:05:19;;;;;;;14.70;5.63;;;;;;;10.31;100.00;98624.50;5056341;28;20041;-91
2022/06/15 05:08:01;;;;;;;16.02;6.10;;;;;;;10.23;100.00;98619.41;5062443;28;20005;-93
2022/06/15 05:10:45;;;;;;;13.02;5.45;;;;;;;10.31;100.00;98611.47;5070012;28;20021;-93
2022/06/15 05:13:16;;;;;;;16.63;6.30;;;;;;;10.34;100.00;98616.72;5060958;28;20025;-93
2022/06/15 05:15:51;;;;;;;12.15;5.55;;;;;;;10.40;100.00;98611.44;5070557;28;20041;-93
2022/06/15 05:18:22;;;;;;;15.38;6.20;;;;;;;10.56;100.00;98619.97;5063389;28;20017;-93
2022/06/15 05:20:57;;;;;;;14.40;6.22;;;;;;;10.58;100.00;98602.53;5067940;28;20019;-94
2022/06/15 05:23:29;;;;;;;13.65;5.93;;;;;;;10.61;100.00;98613.84;5069989;28;20076;-93
2022/06/15 05:26:05;;;;;;;18.27;7.18;;;;;;;10.70;100.00;98613.69;5064328;28;20005;-93
2022/06/15 05:28:37;;;;;;;17.17;6.55;;;;;;;10.70;100.00;98614.59;5069328;28;20035;-92
2022/06/15 05:31:14;;;;;;;16.00;6.67;;;;;;;10.84;100.00;98616.16;5071859;28;20033;-93
2022/06/15 05:33:40;;;;;;;14.70;7.03;;;;;;;10.91;100.00;98618.66;5073280;28;20033;-91
2022/06/15 05:36:18;;;;;;;14.75;6.43;;;;;;;10.98;100.00;98615.97;5074406;28;20017;-91
2022/06/15 05:38:44;;;;;;;13.23;6.38;;;;;;;11.13;100.00;98625.34;5072185;28;20013;-92
2022/06/15 05:41:10;;;;;;;14.60;7.38;;;;;;;11.12;100.00;98621.88;5068683;28;20070;-92
2022/06/15 05:43:57;;;;;;;17.38;7.13;;;;;;;11.17;100.00;98627.03;5072852;28;20052;-92
2022/06/15 05:46:26;;;;;;;18.42;7.65;;;;;;;11.30;100.00;98630.34;5072318;28;20044;-91
2022/06/15 05:48:55;;;;;;;18.45;7.82;;;;;;;11.30;100.00;98635.56;5075694;28;20041;-89
2022/06/15 05:51:20;;;;;;;16.70;6.03;;;;;;;11.27;100.00;98634.72;5071645;28;20010;-88
2022/06/15 05:53:46;;;;;;;16.02;5.85;;;;;;;11.40;100.00;98632.81;5074466;28;20096;-91
2022/06/15 05:56:11;;;;;;;15.07;6.03;;;;;;;11.28;100.00;98631.22;5070072;28;20036;-89
2022/06/15 05:58:56;;;;;;;14.38;6.20;;;;;;;11.36;100.00;98619.81;5067294;28;20036;-90
2022/06/15 06:01:37;;;;;;;13.50;5.82;;;;;;;11.49;100.00;98625.72;5075869;28;20070;-89
2022/06/15 06:04:03;;;;;;;14.00;6.03;;;;;;;11.54;100.00;98627.38;5082682;28;20104;-90
2022/06/15 06:06:30;;;;;;;17.75;7.85;;;;;;;11.53;100.00;98617.81;5060767;28;20033;-88
2022/06/15 06:09:11;;;;;;;18.20;7.57;;;;;;;11.66;100.00;98626.31;5066302;28;20032;-88
2022/06/15 06:11:37;;;;;;;17.92;7.63;;;;;;;11.69;100.00;98631.50;5053530;28;20033;-90
2022/06/15 06:14:16;;;;;;;17.02;7.60;;;;;;;11.76;100.00;98627.91;5053979;28;20028;-91
2022/06/15 06:16:41;;;;;;;16.10;6.97;;;;;;;11.85;100.00;98616.44;5054161;28;20028;-91
2022/06/15 06:19:07;;;;;;;15.20;6.90;;;;;;;11.97;100.00;98620.63;5054241;28;20096;-91
2022/06/15 06:21:32;;;;;;;15.77;7.15;;;;;;;12.02;100.00;98621.41;5055872;28;20415;-89
2022/06/15 06:23:58;;;;;;;19.40;6.65;;;;;;;12.07;100.00;98624.81;5067584;28;20020;-90
2022/06/15 06:26:33;;;;;;;16.30;7.03;;;;;;;12.19;100.00;98612.41;5072945;28;20084;-90
2022/06/15 06:29:00;;;;;;;17.92;6.95;;;;;;;12.23;100.00;98622.81;5068698;28;20025;-90
2022/06/15 06:31:29;;;;;;;14.60;5.65;;;;;;;12.34;100.00;98619.13;5049377;28;20037;-91
2022/06/15 06:33:55;;;;;;;16.55;6.28;;;;;;;12.37;100.00;98616.44;5046836;28;20025;-90
2022/06/15 06:36:36;;;;;;;17.08;6.32;;;;;;;12.41;100.00;98615.50;5048550;28;20481;-90
2022/06/15 06:39:06;;;;;;;15.15;6.60;;;;;;;12.60;100.00;98614.25;5043830;28;20051;-89
2022/06/15 06:41:32;;;;;;;13.13;5.80;;;;;;;12.74;100.00;98611.34;5041968;28;20096;-92
2022/06/15 06:43:59;;;;;;;14.02;6.10;;;;;;;12.86;100.00;98599.78;5043809;28;20025;-90
2022/06/15 06:46:25;;;;;;;13.98;6.22;;;;;;;13.04;100.00;98623.84;5048699;28;20144;-90
2022/06/15 06:48:52;;;;;;;13.98;6.15;;;;;;;13.06;100.00;98617.69;5040414;28;20029;-90
2022/06/15 06:51:17;;;;;;;13.82;6.30;;;;;;;13.14;100.00;98622.75;5043347;28;20449;-91
2022/06/15 06:53:43;;;;;;;13.10;6.63;;;;;;;13.23;100.00;98617.31;5060590;28;20075;-91
2022/06/15 06:56:11;;;;;;;14.02;6.20;;;;;;;13.23;100.00;98619.91;5054388;28;20088;-90
2022/06/15 06:58:37;;;;;;;12.75;6.07;;;;;;;13.35;100.00;98621.44;5045585;28;20029;-90
2022/06/15 07:01:03;;;;;;;14.77;6.25;;;;;;;13.51;100.00;98618.47;5045570;28;20029;-90
2022/06/15 07:03:30;;;;;;;13.48;6.20;;;;;;;13.59;100.00;98627.88;5054900;28;20043;-90
2022/06/15 07:06:04;;;;;;;12.77;5.93;;;;;;;13.92;100.00;98630.59;5057212;28;20061;-90
2022/06/15 07:08:31;;;;;;;14.20;6.10;;;;;;;13.83;100.00;98628.19;5046877;28;20032;-91
2022/06/15 07:10:59;;;;;;;14.23;6.25;;;;;;;14.09;100.00;98632.78;5042947;28;20025;-91
2022/06/15 07:13:25;;;;;;;11.70;5.45;;;;;;;13.88;100.00;98621.09;5044386;28;20082;-91
2022/06/15 07:15:53;;;;;;;14.80;6.20;;;;;;;14.21;100.00;98618.50;5042841;28;20031;-91
2022/06/15 07:18:19;;;;;;;11.57;5.55;;;;;;;14.31;100.00;98612.13;5044760;28;20499;-91
2022/06/15 07:20:44;;;;;;;12.40;5.45;;;;;;;14.36;100.00;98624.25;5046184;28;20120;-90
2022/06/15 07:23:10;;;;;;;13.32;6.03;;;;;;;14.29;100.00;98624.41;5048106;28;20112;-89
2022/06/15 07:25:36;;;;;;;12.95;5.25;;;;;;;14.49;100.00;98634.38;5044418;28;20103;-92
2022/06/15 07:28:03;;;;;;;14.07;5.20;;;;;;;14.77;100.00;98628.41;5046426;28;20036;-92
2022/06/15 07:30:29;;;;;;;11.73;5.30;;;;;;;14.85;100.00;98623.78;5048446;28;20409;-92
2022/06/15 07:32:55;;;;;;;11.23;5.57;;;;;;;14.90;100.00;98617.53;5048794;28;20037;-92
2022/06/15 07:35:25;;;;;;;12.50;5.80;;;;;;;14.81;100.00;98614.28;5043866;28;20040;-92
2022/06/15 07:37:52;;;;;;;13.45;6.07;;;;;;;14.81;100.00;98614.28;5062258;28;20028;-91
2022/06/15 07:40:20;;;;;;;15.30;5.97;;;;;;;15.03;100.00;98621.53;5047932;28;20118;-92
2022/06/15 07:42:47;;;;;;;13.27;6.03;;;;;;;15.23;100.00;98617.47;5044555;28;20070;-92
2022/06/15 07:45:16;;;;;;;16.73;5.82;;;;;;;15.36;100.00;98619.66;5044948;28;20025;-91
2022/06/15 07:50:30;;;;;;;15.57;5.95;;;;;;;15.48;100.00;98626.31;5046272;28;20071;-90
2022/06/15 07:52:57;;;;;;;15.80;6.22;;;;;;;15.49;100.00;98624.53;5049111;28;20051;-91
2022/06/15 07:55:29;;;;;;;17.88;6.85;;;;;;;15.30;100.00;98621.63;5041498;28;20028;-91
2022/06/15 07:57:55;;;;;;;15.02;7.00;;;;;;;15.38;100.00;98622.25;5046361;28;20044;-89
2022/06/15 08:00:22;;;;;;;15.27;6.90;;;;;;;15.32;100.00;98625.03;5043263;28;20024;-91
2022/06/15 08:02:49;;;;;;;17.17;6.80;;;;;;;15.30;100.00;98622.47;5040781;28;20070;-91
2022/06/15 08:05:15;;;;;;;15.88;7.40;;;;;;;15.28;100.00;98620.78;5047634;28;20021;-92
2022/06/15 08:07:47;;;;;;;17.35;7.50;;;;;;;15.25;100.00;98623.53;5038917;28;20144;-91
2022/06/15 08:10:16;;;;;;;14.43;6.93;;;;;;;15.74;100.00;98635.16;5042682;28;20033;-92
2022/06/15 08:12:42;;;;;;;14.65;7.57;;;;;;;15.92;100.00;98631.09;5040423;28;20443;-92
2022/06/15 08:15:15;;;;;;;17.30;7.30;;;;;;;15.81;100.00;98626.19;5040291;28;20045;-93
2022/06/15 08:17:54;;;;;;;15.07;6.90;;;;;;;15.70;100.00;98617.75;5043267;28;20032;-89
2022/06/15 08:20:31;;;;;;;15.23;7.13;;;;;;;15.85;100.00;98625.16;5040333;28;20037;-90
2022/06/15 08:23:01;;;;;;;19.38;6.93;;;;;;;15.96;100.00;98626.56;5042806;28;20036;-90
2022/06/15 08:25:33;;;;;;;16.38;7.38;;;;;;;16.25;100.00;98624.75;5041468;28;20025;-90
2022/06/15 08:27:59;;;;;;;19.35;7.63;;;;;;;16.30;100.00;98621.03;5039973;28;20036;-89
2022/06/15 08:30:31;;;;;;;15.80;7.55;;;;;;;16.29;100.00;98613.19;5040298;28;20021;-91
2022/06/15 08:32:59;;;;;;;14.80;6.65;;;;;;;16.43;100.00;98613.56;5040673;28;20509;-90
2022/06/15 08:35:25;;;;;;;14.35;7.32;;;;;;;16.38;100.00;98615.50;5040837;28;20481;-90
2022/06/15 08:37:50;;;;;;;18.23;7.18;;;;;;;16.25;100.00;98609.81;5056199;28;20037;-90
2022/06/15 08:40:17;;;;;;;17.25;6.90;;;;;;;16.45;100.00;98613.50;5045348;28;20501;-89
2022/06/15 08:43:29;;;;;;;14.18;7.28;;;;;;;16.30;100.00;98610.50;5039355;28;20119;-90
2022/06/15 08:46:02;;;;;;;14.52;6.78;;;;;;;16.47;100.00;98615.16;5034356;28;20051;-90
2022/06/15 08:48:30;;;;;;;;;;;;;;;16.67;100.00;98611.84;5042552;28;20048;-88
2022/06/15 08:51:05;;;;;;;16.75;6.90;;;;;;;16.54;100.00;98602.66;5040444;28;20023;-90
2022/06/15 08:53:49;;;;;;;15.02;6.15;;;;;;;16.83;100.00;98616.53;5041995;28;20758;-90
2022/06/15 08:56:22;;;;;;;16.23;6.63;;;;;;;16.99;100.00;98614.22;5040549;28;20037;-87
2022/06/15 08:59:02;;;;;;;15.40;6.07;;;;;;;17.23;100.00;98609.81;5044941;28;20025;-86
2022/06/15 09:02:01;;;;;;;13.15;6.13;;;;;;;17.33;100.00;98616.44;5043149;28;20028;-86
2022/06/15 09:04:33;;;;;;;13.10;5.47;;;;;;;17.42;100.00;98602.03;4997672;28;20045;-86
2022/06/15 09:07:10;;;;;;;14.13;6.13;;;;;;;17.61;100.00;98609.22;4997530;28;20057;-86
2022/06/15 09:09:42;;;;;;;13.20;6.13;;;;;;;17.90;100.00;98600.13;5011923;28;20041;-86
2022/06/15 09:16:03;;;;;;;19.33;6.53;;;;;;;17.62;100.00;98614.44;4988159;28;20105;-85
2022/06/15 09:18:41;;;;;;;13.88;6.28;;;;;;;17.88;100.00;98605.47;4987478;28;20105;-85
2022/06/15 09:21:35;;;;;;;16.08;6.65;;;;;;;17.94;100.00;98604.38;4993571;28;20088;-85
2022/06/15 09:24:04;;;;;;;13.77;6.00;;;;;;;18.12;100.00;98604.50;5003533;28;20117;-84
2022/06/15 09:26:38;;;;;;;15.77;6.60;;;;;;;18.11;100.00;98603.66;4983868;28;20173;-87
2022/06/15 09:29:17;;;;;;;17.83;6.70;;;;;;;18.21;100.00;98604.13;4995350;28;20080;-85
2022/06/15 09:31:51;;;;;;;13.98;6.63;;;;;;;18.32;100.00;98603.69;5000208;28;20057;-86
2022/06/15 09:34:28;;;;;;;12.75;5.38;;;;;;;18.40;100.00;98602.41;4984019;28;20038;-85
2022/06/15 09:36:57;;;;;;;13.00;6.25;;;;;;;18.20;100.00;98605.03;4986956;28;20128;-86
2022/06/15 09:39:24;;;;;;;14.60;6.18;;;;;;;18.23;100.00;98603.16;5006013;28;20048;-86
2022/06/15 09:42:06;;;;;;;15.10;5.82;;;;;;;18.25;100.00;98603.91;5044752;28;20024;-86
2022/06/15 09:44:46;;;;;;;16.55;6.30;;;;;;;18.43;100.00;98607.56;5048396;28;20024;-86
2022/06/15 09:47:41;;;;;;;16.27;5.68;;;;;;;18.47;100.00;98604.78;5047142;28;20075;-86
2022/06/15 09:50:11;;;;;;;16.10;6.25;;;;;;;18.44;100.00;98603.16;5046017;28;20028;-86
2022/06/15 09:52:45;;;;;;;14.60;5.78;;;;;;;18.80;100.00;98598.91;5045983;28;20055;-85
2022/06/15 09:55:37;;;;;;;17.48;6.10;;;;;;;18.64;100.00;98601.41;5049882;28;20088;-87
2022/06/15 09:58:06;;;;;;;13.18;5.40;;;;;;;18.31;100.00;98600.16;5037569;28;20131;-85
2022/06/15 10:00:32;;;;;;;16.55;5.90;;;;;;;18.25;100.00;98597.78;5043900;28;20029;-87
2022/06/15 10:03:01;;;;;;;18.17;6.00;;;;;;;18.06;100.00;98598.59;5038093;28;20049;-86
2022/06/15 10:05:31;;;;;;;14.88;5.63;;;;;;;18.25;100.00;98600.44;5043161;28;20021;-86
2022/06/15 10:08:01;;;;;;;15.25;4.95;;;;;;;18.14;100.00;98600.88;5040939;28;20029;-85
2022/06/15 10:10:40;;;;;;;12.82;5.20;;;;;;;18.34;100.00;98604.44;5042738;28;20036;-86
2022/06/15 10:13:15;;;;;;;15.93;5.95;;;;;;;18.08;100.00;98599.38;5038666;28;20036;-86
2022/06/15 10:15:40;;;;;;;16.17;5.32;;;;;;;18.06;100.00;98595.06;5058929;28;20041;-89
2022/06/15 10:18:30;;;;;;;14.38;5.97;;;;;;;18.02;100.00;98591.72;5042219;28;20040;-88
2022/06/15 10:21:03;;;;;;;12.93;5.78;;;;;;;18.22;100.00;98600.56;5039977;28;20032;-89
2022/06/15 10:23:38;;;;;;;16.23;6.00;;;;;;;18.24;100.00;98594.28;5036745;28;20489;-85
2022/06/15 10:26:04;;;;;;;15.07;5.72;;;;;;;18.43;100.00;98597.00;5039811;28;20434;-86
2022/06/15 10:28:39;;;;;;;18.30;5.40;;;;;;;18.70;100.00;98590.56;5042152;28;20116;-86
2022/06/15 10:31:13;;;;;;;16.17;5.30;;;;;;;18.64;100.00;98585.56;5036154;28;20035;-88
2022/06/15 10:33:42;;;;;;;12.88;5.55;;;;;;;18.55;100.00;98594.72;5036444;28;20551;-88
2022/06/15 10:36:21;;;;;;;15.38;5.38;;;;;;;18.48;100.00;98588.00;5036936;28;20043;-87
2022/06/15 10:38:57;;;;;;;12.50;4.82;;;;;;;18.83;100.00;98585.56;5040243;28;20037;-88
2022/06/15 10:41:49;;;;;;;12.30;4.68;;;;;;;19.21;100.00;98596.19;5044632;28;20093;-88
2022/06/15 10:44:24;;;;;;;14.00;4.75;;;;;;;19.24;100.00;98590.75;5042154;28;20025;-88
2022/06/15 10:46:59;;;;;;;12.50;5.20;;;;;;;19.57;100.00;98595.38;5041389;28;20146;-88
2022/06/15 10:49:28;;;;;;;15.35;4.82;;;;;;;19.72;100.00;98589.34;5036865;28;20448;-88
2022/06/15 10:51:53;;;;;;;11.70;4.65;;;;;;;19.53;100.00;98593.81;5034328;28;20037;-88
2022/06/15 11:03:29;;;;;;;12.32;4.53;;;;;;;18.96;100.00;98591.19;5041303;28;20068;-87
2022/06/15 11:05:58;;;;;;;8.77;3.80;;;;;;;19.37;100.00;98583.09;5037491;28;20041;-88
2022/06/15 11:08:29;;;;;;;10.65;4.10;;;;;;;19.00;100.00;98590.97;5040557;28;20028;-89
2022/06/15 11:11:17;;;;;;;12.60;4.75;;;;;;;18.81;100.00;98587.44;5038797;28;20037;-90
2022/06/15 11:14:06;;;;;;;9.52;4.35;;;;;;;19.06;100.00;98592.47;5034722;28;20750;-88
2022/06/15 11:19:22;;;;;;;9.07;3.30;;;;;;;19.28;100.00;98587.03;5033238;28;20626;-88
2022/06/15 11:21:56;;;;;;;8.88;2.78;;;;;;;19.30;100.00;98584.31;5039159;28;20396;-87
2022/06/15 11:24:53;;;;;;;9.60;3.10;;;;;;;19.16;100.00;98580.53;5050268;28;20021;-88
2022/06/15 11:27:25;;;;;;;9.55;3.40;;;;;;;19.21;100.00;98583.81;5049500;28;20048;-87
2022/06/15 11:30:03;;;;;;;10.77;3.33;;;;;;;19.18;100.00;98585.75;5040948;28;20024;-88
2022/06/15 11:32:51;;;;;;;8.52;3.53;;;;;;;19.92;100.00;98587.50;5035209;28;20053;-87
2022/06/15 11:35:30;;;;;;;9.52;3.20;;;;;;;20.22;100.00;98576.28;5044500;28;20040;-88
2022/06/15 11:38:14;;;;;;;9.27;3.35;;;;;;;21.14;100.00;98583.78;5047595;28;20515;-88
2022/06/15 11:40:56;;;;;;;10.70;3.33;;;;;;;21.12;95.27;98580.38;5040339;28;20025;-88
2022/06/15 11:43:33;;;;;;;8.47;2.93;;;;;;;20.46;98.24;98582.97;5036222;28;20032;-88
2022/06/15 11:46:34;;;;;;;11.45;3.63;;;;;;;19.57;100.00;98584.78;5034890;28;20058;-89
2022/06/15 11:49:20;;;;;;;11.05;3.38;;;;;;;19.21;100.00;98578.53;5035317;28;20749;-88
2022/06/15 11:52:04;;;;;;;10.82;3.00;;;;;;;19.02;100.00;98581.19;5036934;28;20064;-88
2022/06/15 11:55:08;;;;;;;11.15;3.22;;;;;;;19.51;100.00;98577.13;5035063;28;20636;-89
2022/06/15 11:57:53;;;;;;;8.18;3.10;;;;;;;19.48;100.00;98582.59;5057261;28;20075;-88
2022/06/15 12:00:35;;;;;;;8.80;2.83;;;;;;;19.32;100.00;98577.16;5037179;28;20033;-88
2022/06/15 12:03:17;;;;;;;11.50;3.20;;;;;;;19.56;100.00;98575.97;5040771;28;20024;-89
2022/06/15 12:05:57;;;;;;;9.98;3.10;;;;;;;19.50;100.00;98572.78;5041911;28;20041;-89
2022/06/15 12:08:36;;;;;;;9.02;3.22;;;;;;;20.29;100.00;98567.97;5039388;28;20162;-88
2022/06/15 12:14:35;;;;;;;9.27;3.22;;;;;;;21.38;100.00;98560.38;5040122;28;20126;-89
2022/06/15 12:17:01;;;;;;;9.00;2.97;;;;;;;22.17;99.12;98556.69;5042793;28;20040;-89
2022/06/15 12:20:03;;;;;;;7.22;2.53;;;;;;;21.57;86.27;98560.22;5038523;28;20021;-89
2022/06/15 12:22:59;;;;;;;8.90;2.90;;;;;;;20.49;93.09;98558.09;5046916;28;20037;-90